Time;durP1;ratioP1;P1;durP2;ratioP2;P2;SDS_P1;SDS_P2;PMS_P1;PMS_P2;Temp;Humidity;BMP_temperature;BMP_pressure;BME280_temperature;BME280_humidity;BME280_pressure;Samples;Min_cycle;Max_cycle;Signal;HPM_P1;HPM_P2
2023/11/15 00:00:38;;;;;;;;;3.00;1.00;;;;;14.25;80.21;101245.91;5078389;27;45445;-66
2023/11/15 00:03:04;;;;;;;;;2.50;1.50;;;;;14.26;80.32;101246.78;5068085;27;45378;-66
2023/11/15 00:05:29;;;;;;;;;2.25;2.00;;;;;14.21;80.60;101246.09;5080572;27;45357;-67
2023/11/15 00:07:55;;;;;;;;;2.75;1.00;;;;;14.23;80.35;101249.56;5076518;27;45333;-67
2023/11/15 00:10:22;;;;;;;;;1.75;0.00;;;;;14.21;80.30;101249.63;5077844;27;45701;-67
2023/11/15 00:12:48;;;;;;;;;1.75;0.50;;;;;14.22;80.13;101256.75;5062249;27;47142;-67
2023/11/15 00:15:15;;;;;;;;;3.25;1.00;;;;;14.21;80.08;101254.13;5075777;27;45533;-67
2023/11/15 00:17:40;;;;;;;;;2.00;1.00;;;;;14.23;80.10;101258.53;5066294;27;45356;-67
2023/11/15 00:20:08;;;;;;;;;2.00;1.00;;;;;14.24;79.91;101259.38;5074079;27;45285;-67
2023/11/15 00:22:33;;;;;;;;;2.25;2.00;;;;;14.20;80.19;101265.81;5074041;28;46801;-67
2023/11/15 00:24:59;;;;;;;;;2.25;1.00;;;;;14.21;80.47;101263.06;5076022;27;46390;-67
2023/11/15 00:27:24;;;;;;;;;3.00;2.00;;;;;14.21;80.37;101273.78;5061049;28;45243;-67
2023/11/15 00:29:49;;;;;;;;;2.00;2.00;;;;;14.20;80.42;101280.13;5073745;27;73294;-67
2023/11/15 00:32:15;;;;;;;;;3.00;1.00;;;;;14.17;80.28;101279.38;5080124;28;74055;-67
2023/11/15 00:34:40;;;;;;;;;4.00;2.00;;;;;14.17;80.17;101279.38;5067913;27;45593;-67
2023/11/15 00:37:06;;;;;;;;;1.25;0.75;;;;;14.14;80.02;101277.66;5075229;27;45569;-67
2023/11/15 00:39:32;;;;;;;;;2.50;1.75;;;;;14.09;80.67;101285.88;5074849;27;45374;-67
2023/11/15 00:41:58;;;;;;;;;4.75;0.00;;;;;14.06;80.52;101282.44;5074098;27;46585;-67
2023/11/15 00:44:23;;;;;;;;;2.75;0.50;;;;;14.07;80.29;101289.59;5073980;27;45294;-67
2023/11/15 00:46:48;;;;;;;;;1.75;1.75;;;;;14.07;80.51;101303.00;5066609;27;69441;-67
2023/11/15 00:49:14;;;;;;;;;2.00;1.00;;;;;14.02;80.48;101292.44;5073504;27;72337;-67
2023/11/15 00:51:39;;;;;;;;;2.25;1.25;;;;;14.02;80.57;101296.94;5076185;28;60052;-67
2023/11/15 00:54:06;;;;;;;;;1.00;1.00;;;;;13.99;80.60;101305.97;5066136;27;73199;-67
2023/11/15 00:56:32;;;;;;;;;3.00;1.00;;;;;13.99;80.73;101303.28;5062084;27;45410;-67
2023/11/15 00:58:57;;;;;;;;;1.00;1.00;;;;;13.98;80.87;101306.91;5062413;27;45489;-67
2023/11/15 01:01:25;;;;;;;;;2.00;0.75;;;;;13.99;80.67;101305.97;5076070;27;45980;-67
2023/11/15 01:03:58;;;;;;;;;2.50;1.75;;;;;14.00;80.59;101306.84;5068325;27;45393;-67
2023/11/15 01:06:26;;;;;;;;;2.00;1.00;;;;;14.00;80.72;101320.25;5059757;27;45476;-67
2023/11/15 01:08:54;;;;;;;;;5.25;1.75;;;;;14.00;80.84;101326.53;5063418;27;45383;-67
2023/11/15 01:11:20;;;;;;;;;0.75;0.75;;;;;13.97;80.90;101326.63;5068369;28;45404;-67
2023/11/15 01:13:46;;;;;;;;;2.25;0.75;;;;;13.96;80.82;101330.22;5069147;28;45548;-67
2023/11/15 01:16:12;;;;;;;;;3.75;1.00;;;;;13.94;81.12;101332.09;5069044;27;45250;-67
2023/11/15 01:18:37;;;;;;;;;1.75;1.50;;;;;13.89;80.92;101331.41;5067328;27;45533;-67
2023/11/15 01:21:03;;;;;;;;;3.00;1.00;;;;;13.94;80.96;101339.28;5072132;27;45445;-67
2023/11/15 01:23:29;;;;;;;;;1.00;1.00;;;;;13.95;81.38;101341.91;5076730;28;45419;-67
2023/11/15 01:25:55;;;;;;;;;3.25;0.25;;;;;13.92;81.01;101336.66;5077071;27;45434;-67
2023/11/15 01:28:20;;;;;;;;;7.50;1.75;;;;;13.95;80.76;101333.88;5067188;27;45477;-67
2023/11/15 01:30:46;;;;;;;;;1.00;1.00;;;;;13.92;80.68;101327.75;5075053;27;45482;-68
2023/11/15 01:33:11;;;;;;;;;0.25;0.00;;;;;13.89;80.76;101337.63;5066668;27;45311;-67
2023/11/15 01:35:37;;;;;;;;;0.75;0.00;;;;;13.89;81.15;101340.31;5079787;27;69452;-68
2023/11/15 01:38:02;;;;;;;;;2.00;1.00;;;;;13.93;81.19;101341.06;5066128;27;45655;-67
2023/11/15 01:40:33;;;;;;;;;1.75;1.50;;;;;13.89;81.12;101342.13;5072419;27;46092;-68
2023/11/15 01:42:59;;;;;;;;;2.75;2.00;;;;;13.85;81.06;101330.66;5070197;27;45669;-67
2023/11/15 01:45:24;;;;;;;;;2.00;1.00;;;;;13.86;81.30;101342.25;5070497;27;45374;-67
2023/11/15 01:47:50;;;;;;;;;3.50;1.00;;;;;13.84;81.41;101344.13;5070471;28;72947;-68
2023/11/15 01:50:15;;;;;;;;;2.00;1.50;;;;;13.79;81.34;101338.91;5079790;27;46180;-67
2023/11/15 01:52:43;;;;;;;;;1.00;1.00;;;;;13.80;81.58;101347.81;5071441;27;45442;-67
2023/11/15 01:55:14;;;;;;;;;0.00;0.00;;;;;13.81;81.48;101349.59;5080183;27;45402;-67
2023/11/15 01:57:40;;;;;;;;;2.75;1.00;;;;;13.81;81.51;101352.28;5065742;27;45425;-67
2023/11/15 02:00:08;;;;;;;;;2.75;1.00;;;;;13.83;81.36;101345.94;5067009;27;46177;-67
2023/11/15 02:02:34;;;;;;;;;1.75;1.75;;;;;13.84;81.35;101352.16;5066866;27;45597;-67
2023/11/15 02:05:00;;;;;;;;;2.00;1.00;;;;;13.85;81.54;101359.28;5076810;27;45444;-67
2023/11/15 02:07:26;;;;;;;;;1.00;0.00;;;;;13.86;81.42;101366.41;5078315;27;45519;-67
2023/11/15 02:09:51;;;;;;;;;1.00;1.00;;;;;13.82;81.58;101351.34;5063099;27;45821;-67
2023/11/15 02:12:18;;;;;;;;;0.00;0.00;;;;;13.84;81.34;101358.41;5075529;28;45379;-67
2023/11/15 02:14:43;;;;;;;;;1.25;1.00;;;;;13.83;81.56;101363.81;5063685;27;45475;-67
2023/11/15 02:17:08;;;;;;;;;4.75;1.00;;;;;13.81;81.51;101360.31;5076389;28;70877;-67
2023/11/15 02:19:33;;;;;;;;;6.00;2.50;;;;;13.84;81.42;101373.63;5061688;27;60255;-68
2023/11/15 02:21:59;;;;;;;;;4.00;1.75;;;;;13.83;81.74;101374.56;5074465;28;69780;-67
2023/11/15 02:24:24;;;;;;;;;3.50;1.00;;;;;13.80;81.41;101374.66;5070998;27;69346;-68
2023/11/15 02:26:49;;;;;;;;;4.25;1.25;;;;;13.82;81.76;101381.75;5077252;27;49961;-67
2023/11/15 02:29:15;;;;;;;;;1.25;1.25;;;;;13.83;81.84;101383.50;5059170;28;64999;-67
2023/11/15 02:31:40;;;;;;;;;3.25;1.00;;;;;13.83;81.46;101375.44;5077538;27;45404;-67
2023/11/15 02:34:05;;;;;;;;;4.00;1.00;;;;;13.81;81.53;101384.47;5070752;27;45470;-68
2023/11/15 02:36:31;;;;;;;;;3.75;2.00;;;;;13.77;81.55;101378.34;5073872;27;45338;-67
2023/11/15 02:38:56;;;;;;;;;1.25;0.25;;;;;13.77;81.75;101378.34;5078588;27;51655;-67
2023/11/15 02:41:22;;;;;;;;;0.25;0.25;;;;;13.75;82.01;101374.84;5076185;27;62455;-67
2023/11/15 02:43:48;;;;;;;;;2.00;1.00;;;;;13.74;81.55;101388.31;5071302;28;45433;-67
2023/11/15 02:46:23;;;;;;;;;1.00;1.00;;;;;13.74;81.76;101397.22;5061693;27;45573;-67
2023/11/15 02:48:51;;;;;;;;;3.75;0.75;;;;;13.75;81.83;101404.38;5060174;28;46596;-67
2023/11/15 02:51:17;;;;;;;;;3.00;1.00;;;;;13.74;81.67;101416.00;5072824;27;45276;-68
2023/11/15 02:53:43;;;;;;;;;4.00;1.00;;;;;13.75;81.82;101416.88;5068336;28;45297;-67
2023/11/15 02:56:08;;;;;;;;;3.25;1.25;;;;;13.77;82.01;101423.09;5075115;27;45571;-67
2023/11/15 02:58:34;;;;;;;;;4.75;1.00;;;;;13.76;81.92;101418.66;5070855;27;45370;-67
2023/11/15 03:01:00;;;;;;;;;2.25;1.00;;;;;13.79;81.90;101413.19;5070990;27;45313;-67
2023/11/15 03:03:25;;;;;;;;;2.75;1.00;;;;;13.86;81.88;101406.66;5070658;27;45386;-67
2023/11/15 03:05:50;;;;;;;;;1.00;1.00;;;;;13.87;81.51;101405.72;5069746;27;45626;-67
2023/11/15 03:08:18;;;;;;;;;1.00;1.00;;;;;13.85;81.79;101405.78;5069385;28;64702;-67
2023/11/15 03:10:44;;;;;;;;;5.75;1.25;;;;;13.82;81.63;101397.84;5070834;27;45443;-67
2023/11/15 03:13:09;;;;;;;;;1.00;1.00;;;;;13.85;81.52;101402.22;5079240;27;46128;-67
2023/11/15 03:15:36;;;;;;;;;1.00;1.00;;;;;13.82;81.54;101411.25;5069744;27;63942;-67
2023/11/15 03:18:02;;;;;;;;;2.50;1.00;;;;;13.79;81.72;101395.25;5058254;28;46214;-67
2023/11/15 03:20:27;;;;;;;;;2.00;1.00;;;;;13.72;81.58;101385.69;5070845;27;45336;-67
2023/11/15 03:22:53;;;;;;;;;2.25;1.00;;;;;13.75;81.77;101388.25;5075904;28;66967;-67
2023/11/15 03:25:19;;;;;;;;;2.00;1.00;;;;;13.79;81.81;101397.06;5075643;27;45318;-68
2023/11/15 03:27:44;;;;;;;;;1.25;1.25;;;;;13.81;82.07;101405.94;5062240;28;45398;-67
2023/11/15 03:30:12;;;;;;;;;2.00;1.00;;;;;13.78;81.72;101395.31;5065261;27;45286;-67
2023/11/15 03:32:37;;;;;;;;;1.25;1.00;;;;;13.82;81.60;101410.38;5078275;27;45765;-67
2023/11/15 03:35:04;;;;;;;;;3.75;0.75;;;;;13.83;81.57;101412.13;5063648;27;45469;-67
2023/11/15 03:37:30;;;;;;;;;1.25;1.25;;;;;13.77;81.46;101420.41;5067061;28;46548;-67
2023/11/15 03:39:56;;;;;;;;;3.50;1.00;;;;;13.78;81.13;101420.34;5062993;27;45786;-67
2023/11/15 03:42:21;;;;;;;;;2.00;0.00;;;;;13.75;81.51;101425.81;5062439;27;45419;-67
2023/11/15 03:44:47;;;;;;;;;1.25;1.00;;;;;13.77;81.70;101447.25;5063433;28;66815;-67
2023/11/15 03:47:12;;;;;;;;;2.00;1.00;;;;;13.77;81.75;101439.19;5078814;27;74286;-67
2023/11/15 03:49:37;;;;;;;;;1.00;1.00;;;;;13.79;81.57;101448.06;5072740;27;45392;-67
2023/11/15 03:52:02;;;;;;;;;3.25;1.00;;;;;13.78;81.46;101449.88;5064635;27;69466;-67
2023/11/15 03:54:28;;;;;;;;;1.25;1.00;;;;;13.77;81.43;101455.28;5080205;28;45278;-67
2023/11/15 03:56:53;;;;;;;;;3.00;1.75;;;;;13.78;81.62;101459.72;5066082;27;45264;-67
2023/11/15 03:59:19;;;;;;;;;2.00;0.00;;;;;13.79;81.60;101453.44;5061780;28;45355;-67
2023/11/15 04:01:45;;;;;;;;;3.00;1.00;;;;;13.76;81.66;101454.38;5075267;27;45326;-67
2023/11/15 04:04:10;;;;;;;;;2.75;1.00;;;;;13.77;81.55;101452.59;5081008;27;45685;-68
2023/11/15 04:06:36;;;;;;;;;3.75;0.75;;;;;13.81;81.42;101454.25;5070731;27;74633;-68
2023/11/15 04:09:02;;;;;;;;;0.00;0.00;;;;;13.84;81.52;101449.63;5078412;27;71837;-67
2023/11/15 04:11:34;;;;;;;;;1.25;1.00;;;;;13.83;81.36;101441.63;5062692;27;45509;-67
2023/11/15 04:14:00;;;;;;;;;1.50;1.00;;;;;13.83;81.75;101449.69;5061345;28;45291;-67
2023/11/15 04:16:25;;;;;;;;;1.00;1.00;;;;;13.83;81.65;101447.00;5071477;27;63000;-67
2023/11/15 04:18:51;;;;;;;;;2.00;1.25;;;;;13.80;81.67;101448.00;5069715;28;45625;-67
2023/11/15 04:21:16;;;;;;;;;1.50;1.00;;;;;13.83;81.47;101449.69;5064732;27;45412;-67
2023/11/15 04:23:43;;;;;;;;;0.75;0.00;;;;;13.80;81.42;101449.78;5074554;28;69732;-68
2023/11/15 04:26:08;;;;;;;;;2.00;1.00;;;;;13.78;81.35;101444.50;5073969;27;46189;-67
2023/11/15 04:28:34;;;;;;;;;1.00;1.00;;;;;13.83;81.64;101449.69;5061347;28;45338;-67
2023/11/15 04:30:59;;;;;;;;;1.25;0.50;;;;;13.81;81.46;101451.56;5062686;27;57308;-67
2023/11/15 04:33:24;;;;;;;;;0.00;0.00;;;;;13.85;81.33;101461.28;5067412;27;73255;-67
2023/11/15 04:35:49;;;;;;;;;1.50;0.00;;;;;13.83;81.66;101461.31;5070296;27;75824;-67
2023/11/15 04:38:16;;;;;;;;;1.00;1.00;;;;;13.84;81.39;101460.38;5064688;28;58349;-67
2023/11/15 04:40:41;;;;;;;;;1.75;0.00;;;;;13.86;81.33;101469.25;5070800;27;45408;-67
2023/11/15 04:43:06;;;;;;;;;2.00;1.75;;;;;13.88;81.60;101471.88;5079407;27;45356;-67
2023/11/15 04:45:32;;;;;;;;;1.75;0.75;;;;;13.85;81.41;101466.63;5080018;27;47057;-67
2023/11/15 04:47:57;;;;;;;;;1.00;1.00;;;;;13.86;81.33;101473.75;5067063;27;45409;-67
2023/11/15 04:50:23;;;;;;;;;2.25;2.25;;;;;13.83;81.44;101477.44;5080074;27;45468;-67
2023/11/15 04:52:48;;;;;;;;;2.75;1.00;;;;;13.78;81.55;101471.34;5069774;28;72664;-67
2023/11/15 04:55:13;;;;;;;;;3.75;0.75;;;;;13.82;81.33;101482.84;5060903;28;46347;-67
2023/11/15 04:57:39;;;;;;;;;2.75;1.00;;;;;13.77;81.53;101472.25;5077335;27;71254;-67
2023/11/15 05:00:07;;;;;;;;;1.75;1.00;;;;;13.81;81.53;101494.50;5060955;28;45268;-67
2023/11/15 05:02:32;;;;;;;;;1.25;1.25;;;;;13.77;81.43;101493.72;5077143;27;45397;-67
2023/11/15 05:04:58;;;;;;;;;6.00;1.50;;;;;13.73;81.66;101499.25;5059508;28;70313;-67
2023/11/15 05:07:24;;;;;;;;;1.00;1.00;;;;;13.70;81.74;101501.09;5070641;27;45497;-67
2023/11/15 05:09:50;;;;;;;;;0.00;0.00;;;;;13.69;81.57;101503.84;5060799;28;46712;-67
2023/11/15 05:12:15;;;;;;;;;2.50;1.00;;;;;13.67;81.98;101511.94;5066427;27;45335;-67
2023/11/15 05:14:41;;;;;;;;;1.75;0.00;;;;;13.70;81.95;101517.19;5068065;28;46836;-67
2023/11/15 05:17:07;;;;;;;;;1.25;0.75;;;;;13.72;82.07;101511.78;5078541;27;45404;-67
2023/11/15 05:19:34;;;;;;;;;1.00;1.00;;;;;13.71;81.91;101501.97;5059878;28;45295;-67
2023/11/15 05:21:59;;;;;;;;;2.00;0.75;;;;;13.68;81.68;101500.28;5065652;27;45322;-67
2023/11/15 05:24:25;;;;;;;;;0.00;0.00;;;;;13.62;81.69;101496.94;5059344;28;69916;-67
2023/11/15 05:26:50;;;;;;;;;1.25;1.00;;;;;13.63;81.78;101494.19;5068856;27;45818;-67
2023/11/15 05:29:15;;;;;;;;;3.25;0.75;;;;;13.65;82.11;101511.13;5067574;28;56543;-67
2023/11/15 05:31:41;;;;;;;;;2.00;0.25;;;;;13.67;81.76;101509.25;5078923;27;72154;-68
2023/11/15 05:34:06;;;;;;;;;1.50;1.00;;;;;13.65;81.73;101503.06;5063898;27;66740;-68
2023/11/15 05:36:32;;;;;;;;;1.25;1.00;;;;;13.63;82.01;101502.25;5072087;27;45404;-67
2023/11/15 05:38:57;;;;;;;;;1.25;1.00;;;;;13.70;81.77;101514.50;5062277;27;45617;-67
2023/11/15 05:41:23;;;;;;;;;1.00;1.00;;;;;13.69;82.00;101515.44;5064972;27;45453;-67
2023/11/15 05:43:48;;;;;;;;;1.75;1.00;;;;;13.71;81.71;101512.69;5071987;28;45427;-67
2023/11/15 05:46:14;;;;;;;;;1.00;1.00;;;;;13.67;81.87;101513.75;5062271;27;73350;-67
2023/11/15 05:48:39;;;;;;;;;3.75;0.00;;;;;13.65;81.99;101527.22;5063458;28;45543;-67
2023/11/15 05:51:06;;;;;;;;;3.50;2.00;;;;;13.65;81.93;101537.06;5070863;27;71914;-67
2023/11/15 05:53:31;;;;;;;;;4.00;1.00;;;;;13.63;81.86;101528.16;5065230;27;46141;-67
2023/11/15 05:55:57;;;;;;;;;1.00;0.00;;;;;13.58;81.88;101522.06;5067840;27;45418;-67
2023/11/15 05:58:23;;;;;;;;;2.00;0.00;;;;;13.60;81.99;101531.84;5062415;28;45374;-67
2023/11/15 06:00:48;;;;;;;;;1.00;1.00;;;;;13.65;82.04;101542.44;5068137;27;45279;-67
2023/11/15 06:03:13;;;;;;;;;2.50;1.25;;;;;13.64;82.17;101538.84;5062316;27;46004;-68
2023/11/15 06:05:38;;;;;;;;;3.25;2.00;;;;;13.64;82.07;101546.03;5069320;28;73172;-67
2023/11/15 06:08:04;;;;;;;;;0.00;0.00;;;;;13.65;81.93;101542.44;5068823;27;50566;-68
2023/11/15 06:10:29;;;;;;;;;3.00;1.00;;;;;13.63;82.03;101547.84;5078715;28;52541;-67
2023/11/15 06:12:55;;;;;;;;;3.00;0.25;;;;;13.63;81.78;101542.47;5070810;27;75761;-68
2023/11/15 06:15:20;;;;;;;;;3.00;0.50;;;;;13.63;82.05;101555.00;5067139;28;45500;-68
2023/11/15 06:17:46;;;;;;;;;3.25;1.00;;;;;13.64;81.82;101563.00;5076518;27;45407;-68
2023/11/15 06:20:11;;;;;;;;;3.25;2.00;;;;;13.64;82.06;101567.50;5064625;27;45396;-67
2023/11/15 06:22:38;;;;;;;;;5.25;2.00;;;;;13.60;81.89;101566.72;5067333;27;45711;-67
2023/11/15 06:25:06;;;;;;;;;2.25;1.25;;;;;13.62;82.02;101567.53;5071543;28;45512;-67
2023/11/15 06:27:33;;;;;;;;;1.00;1.00;;;;;13.63;82.03;101568.41;5073140;27;45329;-67
2023/11/15 06:29:59;;;;;;;;;1.00;1.00;;;;;13.63;82.09;101565.72;5066334;27;45460;-68
2023/11/15 06:32:24;;;;;;;;;1.50;1.00;;;;;13.59;82.09;101562.28;5065569;27;46209;-67
2023/11/15 06:34:50;;;;;;;;;5.00;1.75;;;;;13.57;81.93;101550.72;5064660;28;45448;-68
2023/11/15 06:37:16;;;;;;;;;2.25;0.75;;;;;13.60;81.99;101565.81;5075836;27;45633;-68
2023/11/15 06:39:41;;;;;;;;;1.00;1.00;;;;;13.65;82.19;101571.94;5078281;28;45393;-67
2023/11/15 06:42:07;;;;;;;;;3.00;2.00;;;;;13.66;82.15;101566.50;5075463;27;45478;-67
2023/11/15 06:44:32;;;;;;;;;1.75;0.25;;;;;13.56;81.94;101554.31;5079387;27;45583;-67
2023/11/15 06:47:01;;;;;;;;;3.00;1.00;;;;;13.66;82.04;101571.00;5069008;27;45425;-68
2023/11/15 06:49:27;;;;;;;;;5.00;0.75;;;;;13.65;82.10;101577.31;5061722;28;45475;-67
2023/11/15 06:51:52;;;;;;;;;2.25;1.00;;;;;13.67;82.06;101578.13;5075656;27;45626;-68
2023/11/15 06:54:18;;;;;;;;;1.75;1.00;;;;;13.68;82.13;101571.81;5059366;27;45398;-68
2023/11/15 06:56:44;;;;;;;;;4.00;1.00;;;;;13.67;81.98;101576.31;5058719;27;45601;-68
2023/11/15 06:59:10;;;;;;;;;3.50;2.00;;;;;13.65;82.17;101580.88;5058910;28;45579;-68
2023/11/15 07:01:35;;;;;;;;;2.75;2.00;;;;;13.67;82.26;101580.81;5064660;27;46045;-68
2023/11/15 07:04:01;;;;;;;;;2.50;0.50;;;;;13.67;81.75;101579.00;5077377;28;68484;-68
2023/11/15 07:06:27;;;;;;;;;1.75;1.25;;;;;13.66;81.79;101589.78;5072670;27;45365;-67
2023/11/15 07:08:52;;;;;;;;;3.00;1.00;;;;;13.61;81.66;101587.22;5065902;27;45554;-67
2023/11/15 07:11:18;;;;;;;;;4.75;2.00;;;;;13.57;81.72;101580.22;5064670;27;46211;-67
2023/11/15 07:13:44;;;;;;;;;2.25;1.00;;;;;13.60;81.73;101598.00;5072962;27;45711;-67
2023/11/15 07:16:10;;;;;;;;;1.50;1.00;;;;;13.58;81.90;101599.88;5064981;28;45364;-67
2023/11/15 07:18:36;;;;;;;;;2.00;1.00;;;;;13.59;81.98;101602.50;5074594;27;45504;-69
2023/11/15 07:21:01;;;;;;;;;2.25;2.00;;;;;13.56;82.06;101601.72;5070925;28;47173;-69
2023/11/15 07:23:27;;;;;;;;;2.00;1.25;;;;;13.56;82.04;101612.47;5071141;27;45535;-69
2023/11/15 07:25:56;;;;;;;;;2.00;1.00;;;;;13.59;81.98;101629.34;5059286;28;45368;-68
2023/11/15 07:28:23;;;;;;;;;3.00;1.50;;;;;13.58;82.02;101635.66;5063345;27;46803;-67
2023/11/15 07:30:50;;;;;;;;;3.50;2.25;;;;;13.60;81.93;101643.63;5074634;27;46343;-68
2023/11/15 07:33:21;;;;;;;;;5.00;1.25;;;;;13.60;82.12;101643.63;5073595;27;45401;-68
2023/11/15 07:35:49;;;;;;;;;2.00;1.00;;;;;13.62;82.12;101641.78;5058515;28;45445;-70
2023/11/15 07:38:15;;;;;;;;;2.00;1.00;;;;;13.60;81.88;101649.88;5062882;27;45505;-66
2023/11/15 07:40:44;;;;;;;;;4.00;1.00;;;;;13.59;81.82;101664.22;5065501;27;45611;-66
2023/11/15 07:43:10;;;;;;;;;3.00;1.50;;;;;13.60;82.26;101665.06;5069115;27;45399;-66
2023/11/15 07:45:36;;;;;;;;;4.50;1.25;;;;;13.52;81.99;101655.47;5075279;28;45388;-68
2023/11/15 07:48:04;;;;;;;;;2.25;2.25;;;;;13.61;81.93;101672.22;5071538;27;45535;-67
2023/11/15 07:50:31;;;;;;;;;4.00;2.25;;;;;13.62;81.63;101680.22;5072197;27;46880;-67
2023/11/15 07:52:56;;;;;;;;;4.75;4.00;;;;;13.61;81.98;101683.81;5066850;27;45519;-66
2023/11/15 07:55:21;;;;;;;;;4.25;1.75;;;;;13.59;82.08;101682.13;5062414;28;45398;-67
2023/11/15 07:57:46;;;;;;;;;3.50;2.25;;;;;13.59;82.10;101677.63;5065399;27;45521;-67
2023/11/15 08:00:12;;;;;;;;;6.50;1.00;;;;;13.63;81.89;101687.34;5068855;28;52843;-66
2023/11/15 08:02:38;;;;;;;;;1.00;1.00;;;;;13.62;81.72;101679.34;5070214;27;45307;-66
2023/11/15 08:05:07;;;;;;;;;3.75;1.00;;;;;13.63;82.01;101690.03;5066506;27;45704;-67
2023/11/15 08:07:34;;;;;;;;;3.50;1.00;;;;;13.61;81.97;101689.19;5060239;27;45711;-66
2023/11/15 08:09:59;;;;;;;;;1.00;1.00;;;;;13.64;82.00;101696.28;5076304;28;45843;-66
2023/11/15 08:12:26;;;;;;;;;4.25;2.75;;;;;13.60;81.80;101683.84;5069398;27;45339;-67
2023/11/15 08:14:51;;;;;;;;;5.25;1.25;;;;;13.57;81.99;101681.28;5075748;27;45483;-67
2023/11/15 08:17:16;;;;;;;;;1.00;1.00;;;;;13.61;81.78;101682.94;5074424;27;46276;-69
2023/11/15 08:19:44;;;;;;;;;4.25;2.00;;;;;13.64;81.92;101680.19;5077410;27;47276;-68
2023/11/15 08:22:09;;;;;;;;;4.75;2.75;;;;;13.62;81.50;101688.25;5090505;27;45372;-68
2023/11/15 08:24:36;;;;;;;;;2.25;1.25;;;;;13.61;81.69;101696.34;5083882;27;67734;-68
2023/11/15 08:27:03;;;;;;;;;2.00;2.00;;;;;13.60;82.42;101695.50;5073567;27;45350;-67
2023/11/15 08:29:28;;;;;;;;;1.00;1.00;;;;;13.66;82.47;101705.16;5072062;27;46524;-68
2023/11/15 08:31:54;;;;;;;;;1.00;1.00;;;;;13.58;82.31;101691.06;5075060;27;45452;-68
2023/11/15 08:34:20;;;;;;;;;3.25;3.00;;;;;13.65;82.27;101709.66;5067149;27;62297;-68
2023/11/15 08:36:45;;;;;;;;;4.50;2.00;;;;;13.68;82.17;101716.69;5060920;28;45374;-68
2023/11/15 08:39:15;;;;;;;;;5.00;2.00;;;;;13.67;82.08;101714.97;5077090;27;45962;-68
2023/11/15 08:41:41;;;;;;;;;3.00;2.50;;;;;13.67;82.18;101717.66;5071187;28;45593;-68
2023/11/15 08:44:08;;;;;;;;;2.50;1.75;;;;;13.70;81.73;101726.47;5077905;27;45575;-68
2023/11/15 08:46:33;;;;;;;;;3.00;2.00;;;;;13.70;82.19;101714.88;5080165;27;45492;-68
2023/11/15 08:49:00;;;;;;;;;2.75;2.00;;;;;13.71;82.00;101714.84;5075921;27;46428;-69
2023/11/15 08:51:26;;;;;;;;;4.50;2.00;;;;;13.75;82.03;101717.41;5066658;28;45385;-68
2023/11/15 08:53:51;;;;;;;;;0.50;0.50;;;;;13.74;82.03;101721.91;5062251;27;45497;-63
2023/11/15 08:56:16;;;;;;;;;2.00;1.50;;;;;13.75;82.23;101723.66;5060786;28;45327;-63
2023/11/15 08:58:42;;;;;;;;;2.25;2.00;;;;;13.76;81.92;101722.72;5073777;27;63280;-65
2023/11/15 09:01:09;;;;;;;;;3.25;2.25;;;;;13.76;82.33;101717.34;5060648;28;45393;-65
2023/11/15 09:03:34;;;;;;;;;4.00;3.00;;;;;13.75;82.43;101712.94;5065897;27;45390;-65
2023/11/15 09:06:00;;;;;;;;;3.00;1.00;;;;;13.80;82.15;101711.00;5073400;27;45401;-65
2023/11/15 09:08:25;;;;;;;;;4.00;2.00;;;;;13.84;81.92;101715.31;5072085;27;47170;-65
2023/11/15 09:10:51;;;;;;;;;3.25;2.00;;;;;13.81;82.17;101706.50;5073070;28;73098;-65
2023/11/15 09:13:19;;;;;;;;;4.00;2.00;;;;;13.82;82.15;101700.22;5076050;27;45370;-65
2023/11/15 09:15:50;;;;;;;;;3.00;2.00;;;;;13.80;82.01;101696.66;5060936;28;72167;-65
2023/11/15 09:18:19;;;;;;;;;2.50;1.00;;;;;13.80;82.41;101699.34;5076245;27;45366;-65
2023/11/15 09:20:46;;;;;;;;;5.00;2.00;;;;;13.74;82.15;101694.19;5069203;27;45500;-65
2023/11/15 09:23:13;;;;;;;;;1.25;1.25;;;;;13.81;82.23;101706.50;5067216;27;45462;-65
2023/11/15 09:25:39;;;;;;;;;2.00;2.00;;;;;13.83;82.10;101707.31;5062908;28;45476;-65
2023/11/15 09:28:04;;;;;;;;;4.25;2.75;;;;;13.86;82.09;101707.22;5077148;27;45354;-64
2023/11/15 09:30:34;;;;;;;;;3.25;1.50;;;;;13.87;82.12;101707.19;5074534;28;45445;-65
2023/11/15 09:32:59;;;;;;;;;2.25;2.25;;;;;13.86;82.33;101701.84;5076883;27;45409;-64
2023/11/15 09:35:27;;;;;;;;;2.25;2.00;;;;;13.91;82.39;101705.28;5064971;28;45518;-67
2023/11/15 09:37:53;;;;;;;;;2.25;2.25;;;;;13.96;82.50;101706.00;5068688;27;45387;-65
2023/11/15 09:40:21;;;;;;;;;1.50;1.50;;;;;14.01;82.42;101704.06;5068976;27;47313;-65
2023/11/15 09:42:51;;;;;;;;;5.00;3.00;;;;;14.05;82.04;101689.63;5068029;27;45468;-66
2023/11/15 09:45:18;;;;;;;;;2.25;1.00;;;;;14.06;82.05;101690.50;5073542;28;45381;-65
2023/11/15 09:47:46;;;;;;;;;3.50;2.50;;;;;14.06;81.90;101688.69;5074098;27;45791;-65
2023/11/15 09:50:15;;;;;;;;;3.00;1.00;;;;;14.10;81.82;101692.19;5069705;27;45642;-65
2023/11/15 09:52:41;;;;;;;;;4.25;1.75;;;;;14.16;81.58;101697.31;5067458;27;45721;-65
2023/11/15 09:55:07;;;;;;;;;2.25;2.25;;;;;14.19;81.66;101699.06;5069046;27;45472;-64
2023/11/15 09:57:33;;;;;;;;;2.25;2.00;;;;;14.18;81.56;101700.88;5063035;27;45435;-65
2023/11/15 09:59:58;;;;;;;;;3.00;1.00;;;;;14.24;81.45;101702.47;5062038;28;45327;-65
2023/11/15 10:02:28;;;;;;;;;3.00;2.00;;;;;14.23;81.53;101704.28;5071956;27;45420;-65
2023/11/15 10:05:14;;;;;;;;;1.75;0.25;;;;;14.29;81.40;101705.88;5064704;28;45468;-66
2023/11/15 10:07:42;;;;;;;;;3.25;1.00;;;;;14.31;81.48;101711.19;5072803;27;48195;-65
2023/11/15 10:10:20;;;;;;;;;2.00;1.00;;;;;14.33;81.76;101707.50;5079874;27;45326;-65
2023/11/15 10:12:53;;;;;;;;;4.00;1.25;;;;;14.34;81.58;101698.53;5063315;27;45399;-64
2023/11/15 10:15:27;;;;;;;;;4.00;1.00;;;;;14.39;81.69;101703.78;5068147;28;45369;-67
2023/11/15 10:17:53;;;;;;;;;3.00;1.00;;;;;14.40;81.34;101698.34;5078696;27;58079;-68
2023/11/15 10:20:25;;;;;;;;;2.25;1.25;;;;;14.43;81.19;101703.63;5072107;27;72014;-67
2023/11/15 10:22:52;;;;;;;;;0.00;0.00;;;;;14.45;81.08;101698.19;5064631;27;45468;-65
2023/11/15 10:25:21;;;;;;;;;4.50;2.75;;;;;14.45;81.05;101703.56;5067084;27;45331;-65
2023/11/15 10:27:47;;;;;;;;;1.00;1.00;;;;;14.46;80.82;101705.31;5078872;27;46219;-66
2023/11/15 10:30:15;;;;;;;;;1.25;1.00;;;;;14.51;80.70;101708.72;5073260;27;45500;-66
2023/11/15 10:32:47;;;;;;;;;2.00;1.00;;;;;14.54;80.82;101710.44;5072572;27;45967;-65
2023/11/15 10:35:28;;;;;;;;;1.00;1.00;;;;;14.55;80.28;101709.50;5071749;28;45595;-65
2023/11/15 10:37:53;;;;;;;;;1.00;1.00;;;;;14.59;80.11;101698.63;5067975;27;46199;-65
2023/11/15 10:40:25;;;;;;;;;7.50;4.00;;;;;14.63;80.21;101702.09;5077881;28;67991;-65
2023/11/15 10:42:52;;;;;;;;;4.75;2.00;;;;;14.64;80.48;101706.53;5079233;27;45445;-65
2023/11/15 10:45:22;;;;;;;;;2.50;1.00;;;;;14.61;80.10;101704.81;5073638;27;46202;-65
2023/11/15 10:48:11;;;;;;;;;1.25;0.00;;;;;14.64;80.14;101695.78;5065542;27;45559;-65
2023/11/15 10:50:42;;;;;;;;;2.00;1.00;;;;;14.69;79.45;101709.94;5062547;28;45542;-65
2023/11/15 10:53:10;;;;;;;;;1.75;1.00;;;;;14.67;79.82;101705.53;5065028;27;45606;-65
2023/11/15 10:55:37;;;;;;;;;2.00;0.25;;;;;14.70;79.26;101714.41;5065443;28;45530;-65
2023/11/15 10:58:04;;;;;;;;;1.00;1.00;;;;;14.71;79.24;101705.41;5077576;27;46375;-65
2023/11/15 11:00:30;;;;;;;;;4.25;1.00;;;;;14.78;79.16;101714.13;5069450;27;45333;-65
2023/11/15 11:02:56;;;;;;;;;3.00;2.00;;;;;14.74;78.87;101718.72;5074634;27;45742;-65
2023/11/15 11:05:44;;;;;;;;;2.25;0.50;;;;;14.81;78.86;101716.72;5077647;27;45424;-65
2023/11/15 11:08:18;;;;;;;;;0.50;0.50;;;;;14.87;78.68;101723.66;5074882;27;45836;-65
2023/11/15 11:11:03;;;;;;;;;1.75;1.00;;;;;14.87;78.06;101712.91;5071874;27;45445;-66
2023/11/15 11:13:28;;;;;;;;;1.00;1.00;;;;;14.88;78.12;101712.00;5074694;27;45538;-65
2023/11/15 11:15:54;;;;;;;;;1.00;1.00;;;;;14.89;78.16;101706.56;5070819;28;73185;-65
2023/11/15 11:18:19;;;;;;;;;1.00;1.00;;;;;14.88;78.36;101685.13;5073146;27;45477;-65
2023/11/15 11:21:01;;;;;;;;;1.25;0.75;;;;;14.93;78.33;101702.81;5065973;27;68622;-65